VAM | Vabird-VBD

Virtual Vabird! Aerolínea Virtual de habla hispana, desde 2011




 INFORMACIÓN METAR y TAF
METAR FOR LEBB
ADDS - METARS form results

(0705 UTC 29 October 2020)
Data provider http://aviationweather.gov/metar/data/
 
METAR text: LEBB 290700Z 08004KT 050V120 CAVOK 09/08 Q1026 NOSIG
Conditions at: LEBB (BILBAO/SONDICA , ES) observed 0700 UTC 29 October 2020
Temperature: 9.0°C (48°F)
Dewpoint: 8.0°C (46°F) [RH = 93%]
Pressure (altimeter): 30.30 inches Hg (1026.0 mb)
Winds: from the E (80 degrees) at 5 MPH (4 knots; 2.1 m/s)
Visibility: 6 or more miles (10+ km)
Ceiling: ceiling and visibility are OK
Clouds: unknown
Weather: no significant weather observed at this time

METAR text: LEBB 290630Z 05003KT CAVOK 10/09 Q1026 NOSIG
Conditions at: LEBB (BILBAO/SONDICA , ES) observed 0630 UTC 29 October 2020
Temperature: 10.0°C (50°F)
Dewpoint: 9.0°C (48°F) [RH = 93%]
Pressure (altimeter): 30.30 inches Hg (1026.0 mb)
Winds: from the NE (50 degrees) at 3 MPH (3 knots; 1.5 m/s)
Visibility: 6 or more miles (10+ km)
Ceiling: ceiling and visibility are OK
Clouds: unknown
Weather: no significant weather observed at this time

Forecast for: LEBB (BILBAO/SONDICA , ES)
Text: TAF LEBB 290500Z 2906/3006 VRB05KT 9999 SCT040 TX22/2914Z TN10/2906Z
Forecast period: 0600 UTC 29 October 2020 to 0600 UTC 30 October 2020
Forecast type: FROM: standard forecast or significant change
Winds: variable direction winds at 6 MPH (5 knots; 2.6 m/s)
Visibility: 6 or more miles (10+ km)
Ceiling: at least 12,000 feet AGL
Clouds: scattered clouds at 4000 feet AGL
Weather: no significant weather forecast for this period

 MAPA DE AEROPUERTO

 INFORMACIÓN DE PISTA